Time;durP1;ratioP1;P1;durP2;ratioP2;P2;SDS_P1;SDS_P2;PMS_P1;PMS_P2;Temp;Humidity;BMP_temperature;BMP_pressure;BME280_temperature;BME280_humidity;BME280_pressure;Samples;Min_cycle;Max_cycle;Signal;HPM_P1;HPM_P2
2021/03/10 00:01:33;;;;;;;15.93;11.55;;;3.70;77.80;;;;;;5056990;28;20033;-73
2021/03/10 00:03:59;;;;;;;16.80;11.25;;;3.70;77.60;;;;;;5056768;28;20033;-73
2021/03/10 00:06:24;;;;;;;16.60;11.75;;;3.70;77.40;;;;;;5057096;28;20061;-73
2021/03/10 00:08:50;;;;;;;17.25;11.85;;;3.70;77.00;;;;;;5056808;28;20348;-73
2021/03/10 00:11:16;;;;;;;14.13;11.13;;;3.70;77.20;;;;;;5056940;28;20313;-73
2021/03/10 00:13:43;;;;;;;17.35;11.65;;;3.70;77.70;;;;;;5056677;28;20029;-73
2021/03/10 00:16:08;;;;;;;15.63;11.43;;;3.70;77.10;;;;;;5057217;28;20036;-73
2021/03/10 00:18:34;;;;;;;14.75;11.65;;;3.70;76.90;;;;;;5056679;28;20433;-73
2021/03/10 00:21:00;;;;;;;16.05;11.57;;;3.80;77.20;;;;;;5056462;28;20107;-73
2021/03/10 00:23:26;;;;;;;15.27;11.70;;;3.80;77.00;;;;;;5056545;28;20029;-73
2021/03/10 00:25:52;;;;;;;16.38;12.07;;;3.70;77.70;;;;;;5056880;28;20029;-73
2021/03/10 00:28:17;;;;;;;14.52;11.20;;;3.60;78.40;;;;;;5056490;28;20028;-73
2021/03/10 00:30:43;;;;;;;15.10;11.80;;;3.50;78.70;;;;;;5055431;28;20059;-73
2021/03/10 00:33:09;;;;;;;16.83;12.95;;;3.40;78.40;;;;;;5056377;28;20375;-73
2021/03/10 00:35:34;;;;;;;17.05;11.75;;;3.30;77.70;;;;;;5057055;28;20029;-73
2021/03/10 00:38:01;;;;;;;18.20;12.18;;;3.20;78.10;;;;;;5056697;28;20031;-73
2021/03/10 00:40:28;;;;;;;18.95;11.85;;;3.20;75.70;;;;;;5056578;28;20060;-73
2021/03/10 00:42:54;;;;;;;18.95;12.35;;;3.30;75.50;;;;;;5056585;28;20028;-73
2021/03/10 00:45:19;;;;;;;16.27;11.45;;;3.40;73.40;;;;;;5056754;28;20055;-73
2021/03/10 00:47:45;;;;;;;18.13;11.43;;;3.60;70.60;;;;;;5056592;28;20132;-73
2021/03/10 00:50:13;;;;;;;14.25;11.00;;;3.70;68.60;;;;;;5056631;28;20353;-73
2021/03/10 00:52:38;;;;;;;16.67;11.23;;;3.80;65.70;;;;;;5056177;28;20372;-73
2021/03/10 00:55:05;;;;;;;14.15;10.20;;;3.80;65.80;;;;;;5056228;28;20021;-73
2021/03/10 00:57:30;;;;;;;15.23;10.70;;;3.80;65.40;;;;;;5056231;28;20025;-73
2021/03/10 00:59:56;;;;;;;17.67;11.32;;;3.70;64.80;;;;;;5056530;28;20104;-73
2021/03/10 01:02:21;;;;;;;16.58;11.38;;;3.80;63.70;;;;;;5056220;28;20405;-73
2021/03/10 01:04:47;;;;;;;15.85;11.60;;;3.80;64.70;;;;;;5056210;28;20021;-73
2021/03/10 01:07:13;;;;;;;14.07;10.90;;;3.80;67.00;;;;;;5056894;28;20037;-73
2021/03/10 01:09:38;;;;;;;15.93;11.18;;;3.70;67.90;;;;;;5060094;28;20402;-73
2021/03/10 01:12:04;;;;;;;14.07;10.20;;;3.50;68.60;;;;;;5059951;28;20036;-73
2021/03/10 01:14:31;;;;;;;18.23;10.90;;;3.30;69.30;;;;;;5059919;28;20036;-73
2021/03/10 01:16:56;;;;;;;16.50;10.82;;;3.20;70.10;;;;;;5060048;28;20025;-73
2021/03/10 01:19:22;;;;;;;16.80;11.35;;;3.20;69.00;;;;;;5060189;28;20051;-73
2021/03/10 01:21:48;;;;;;;17.38;12.63;;;3.10;69.50;;;;;;5059710;28;20069;-73
2021/03/10 01:24:13;;;;;;;15.77;11.40;;;3.20;68.60;;;;;;5060012;28;20110;-73
2021/03/10 01:26:39;;;;;;;14.65;10.65;;;3.30;68.60;;;;;;5060364;28;20032;-73
2021/03/10 01:29:05;;;;;;;16.60;10.98;;;3.50;68.60;;;;;;5059729;28;20025;-73
2021/03/10 01:31:30;;;;;;;14.45;11.23;;;3.50;68.70;;;;;;5059636;28;20029;-73
2021/03/10 01:33:56;;;;;;;19.48;11.13;;;3.50;68.60;;;;;;5059553;28;20448;-73
2021/03/10 01:36:22;;;;;;;13.70;10.40;;;3.60;68.20;;;;;;5059627;28;20032;-73
2021/03/10 01:38:47;;;;;;;17.65;10.70;;;3.60;69.10;;;;;;5059478;28;20104;-73
2021/03/10 01:41:13;;;;;;;15.75;11.30;;;3.60;67.20;;;;;;5059499;28;20036;-73
2021/03/10 01:43:39;;;;;;;15.77;11.85;;;3.50;68.40;;;;;;5059619;28;20407;-73
2021/03/10 01:46:05;;;;;;;15.52;11.27;;;3.40;69.10;;;;;;5059894;28;20033;-73
2021/03/10 01:48:31;;;;;;;16.50;11.75;;;3.30;70.10;;;;;;5059518;28;20099;-73
2021/03/10 01:50:56;;;;;;;21.35;11.77;;;3.10;71.20;;;;;;5059493;28;20108;-73
2021/03/10 01:53:22;;;;;;;15.23;11.70;;;3.00;71.90;;;;;;5059186;28;20468;-73
2021/03/10 01:55:48;;;;;;;16.85;10.98;;;2.80;71.70;;;;;;5059216;28;20433;-73
2021/03/10 01:58:14;;;;;;;17.35;11.27;;;2.80;72.20;;;;;;5059270;28;20421;-73
2021/03/10 02:00:40;;;;;;;15.80;10.73;;;2.70;73.00;;;;;;5059155;28;20024;-73
2021/03/10 02:03:06;;;;;;;16.13;11.43;;;2.70;72.70;;;;;;5059041;28;20044;-73
2021/03/10 02:05:32;;;;;;;14.18;10.63;;;2.60;73.40;;;;;;5059000;28;20290;-73
2021/03/10 02:08:16;;;;;;;14.85;10.35;;;2.60;73.10;;;;;;5057971;28;20032;-73
2021/03/10 02:11:03;;;;;;;15.00;11.68;;;2.50;72.60;;;;;;5059188;28;20032;-73
2021/03/10 02:14:00;;;;;;;20.30;10.75;;;2.50;73.30;;;;;;5058948;28;20038;-73
2021/03/10 02:16:57;;;;;;;14.73;10.93;;;2.50;72.90;;;;;;5059312;28;20353;-73
2021/03/10 02:19:44;;;;;;;15.55;10.20;;;2.40;71.80;;;;;;5058176;28;20021;-73
2021/03/10 02:22:22;;;;;;;19.83;11.55;;;2.40;72.60;;;;;;5058975;28;20037;-73
2021/03/10 02:25:10;;;;;;;13.65;10.35;;;2.40;72.70;;;;;;5059074;28;20037;-73
2021/03/10 02:27:59;;;;;;;16.00;10.88;;;2.40;72.30;;;;;;5058824;28;20021;-73
2021/03/10 02:30:28;;;;;;;13.82;10.85;;;2.40;72.90;;;;;;5058560;28;20151;-73
2021/03/10 02:32:57;;;;;;;16.38;10.98;;;2.50;73.10;;;;;;5058373;28;20104;-73
2021/03/10 02:35:25;;;;;;;15.68;9.98;;;2.40;73.60;;;;;;5058512;28;20021;-73
2021/03/10 02:37:56;;;;;;;21.40;11.27;;;2.50;73.10;;;;;;5057425;28;20059;-73
2021/03/10 02:40:24;;;;;;;18.20;11.05;;;2.50;74.70;;;;;;5058698;28;20035;-73
2021/03/10 02:42:51;;;;;;;15.43;12.13;;;2.60;75.10;;;;;;5058491;28;20041;-73
2021/03/10 02:45:20;;;;;;;15.68;11.40;;;2.60;76.30;;;;;;5058521;28;20106;-73
2021/03/10 02:47:46;;;;;;;14.85;10.85;;;2.70;75.30;;;;;;5058236;28;20044;-73
2021/03/10 02:50:12;;;;;;;15.90;11.38;;;2.70;75.00;;;;;;5058172;28;20055;-73
2021/03/10 02:52:39;;;;;;;14.70;10.82;;;2.70;75.10;;;;;;5058336;28;20120;-73
2021/03/10 02:55:06;;;;;;;15.05;10.85;;;2.80;75.60;;;;;;5058353;28;20025;-73
2021/03/10 02:57:35;;;;;;;15.40;11.90;;;2.80;76.30;;;;;;5058350;28;20092;-73
2021/03/10 03:00:14;;;;;;;15.57;11.40;;;2.80;76.40;;;;;;5058024;28;20401;-73
2021/03/10 03:02:40;;;;;;;19.95;12.32;;;2.80;77.20;;;;;;5057169;28;20425;-73
2021/03/10 03:05:07;;;;;;;17.25;11.52;;;2.80;77.40;;;;;;5058146;28;20360;-73
2021/03/10 03:07:36;;;;;;;19.20;11.55;;;2.70;77.50;;;;;;5058304;28;20373;-73
2021/03/10 03:10:05;;;;;;;17.55;11.18;;;2.70;77.50;;;;;;5056794;28;20409;-73
2021/03/10 03:12:32;;;;;;;15.82;11.18;;;2.70;78.00;;;;;;5057658;28;20455;-73
2021/03/10 03:15:00;;;;;;;15.93;10.90;;;2.60;78.40;;;;;;5057839;28;20413;-73
2021/03/10 03:17:26;;;;;;;16.00;11.95;;;2.50;78.80;;;;;;5057748;28;20025;-73
2021/03/10 03:19:52;;;;;;;14.48;11.25;;;2.50;78.60;;;;;;5056378;28;20028;-74
2021/03/10 03:22:19;;;;;;;15.82;10.70;;;2.50;78.10;;;;;;5057762;28;20302;-73
2021/03/10 03:24:46;;;;;;;15.77;11.43;;;2.40;77.90;;;;;;5057540;28;20074;-73
2021/03/10 03:27:24;;;;;;;14.20;10.05;;;2.30;78.10;;;;;;5057799;28;20029;-73
2021/03/10 03:29:54;;;;;;;15.43;10.85;;;2.20;78.40;;;;;;5057476;28;20124;-73
2021/03/10 03:32:22;;;;;;;15.73;10.75;;;2.20;79.00;;;;;;5055367;28;20078;-73
2021/03/10 03:34:48;;;;;;;17.02;11.18;;;2.10;78.80;;;;;;5057272;28;20029;-73
2021/03/10 03:37:14;;;;;;;15.63;11.13;;;2.10;78.80;;;;;;5057669;28;20071;-73
2021/03/10 03:39:40;;;;;;;17.00;11.82;;;2.10;79.00;;;;;;5057226;28;20025;-73
2021/03/10 03:42:06;;;;;;;17.70;11.63;;;2.00;78.70;;;;;;5057393;28;20020;-73
2021/03/10 03:44:33;;;;;;;19.95;11.45;;;1.90;78.90;;;;;;5057384;28;20047;-73
2021/03/10 03:46:59;;;;;;;16.52;12.55;;;1.90;78.90;;;;;;5057118;28;20037;-73
2021/03/10 03:49:24;;;;;;;18.42;12.15;;;1.90;79.00;;;;;;5057373;28;20025;-73
2021/03/10 03:51:50;;;;;;;16.27;11.85;;;2.10;80.80;;;;;;5056967;28;20363;-73
2021/03/10 03:54:17;;;;;;;17.52;12.38;;;2.20;82.50;;;;;;5057205;28;20025;-73
2021/03/10 03:56:42;;;;;;;17.98;11.43;;;2.40;82.60;;;;;;5057322;28;20078;-73
2021/03/10 03:59:08;;;;;;;16.38;11.68;;;2.50;81.70;;;;;;5057207;28;20112;-73
2021/03/10 04:01:34;;;;;;;18.17;11.52;;;2.60;81.40;;;;;;5055860;28;20363;-73
2021/03/10 04:03:59;;;;;;;14.65;11.57;;;2.80;80.60;;;;;;5056819;28;20021;-73
2021/03/10 04:06:25;;;;;;;15.68;11.32;;;2.80;80.60;;;;;;5057408;28;20155;-73
2021/03/10 04:08:51;;;;;;;17.05;11.55;;;2.90;82.10;;;;;;5056817;28;20036;-73
2021/03/10 04:11:17;;;;;;;16.70;11.63;;;2.90;80.20;;;;;;5055663;28;20101;-73
2021/03/10 04:13:44;;;;;;;13.95;10.52;;;3.00;79.90;;;;;;5056703;28;20104;-73
2021/03/10 04:16:10;;;;;;;18.00;10.63;;;3.00;80.50;;;;;;5057159;28;20056;-73
2021/03/10 04:18:37;;;;;;;12.68;10.30;;;3.00;82.40;;;;;;5056692;28;20040;-73
2021/03/10 04:21:04;;;;;;;15.90;12.07;;;3.00;81.40;;;;;;5056547;28;20053;-73
2021/03/10 04:23:29;;;;;;;14.43;11.40;;;3.00;81.50;;;;;;5055462;28;20021;-73
2021/03/10 04:25:55;;;;;;;16.52;11.50;;;2.90;80.40;;;;;;5055583;28;20024;-73
2021/03/10 04:28:21;;;;;;;17.17;11.70;;;2.90;80.10;;;;;;5056808;28;20317;-73
2021/03/10 04:30:46;;;;;;;15.70;11.82;;;2.80;80.50;;;;;;5056518;28;20090;-73
2021/03/10 04:33:12;;;;;;;15.52;11.07;;;2.80;80.50;;;;;;5056674;28;20032;-73
2021/03/10 04:35:37;;;;;;;14.55;11.20;;;2.70;80.10;;;;;;5056795;28;20032;-73
2021/03/10 04:38:03;;;;;;;17.90;11.60;;;2.60;80.20;;;;;;5056470;28;20031;-73
2021/03/10 04:40:29;;;;;;;16.35;11.32;;;2.50;80.00;;;;;;5056461;28;20057;-73
2021/03/10 04:42:54;;;;;;;14.18;10.27;;;2.50;79.50;;;;;;5058336;28;20037;-73
2021/03/10 04:45:20;;;;;;;15.40;11.60;;;2.40;79.30;;;;;;5059575;28;20024;-73
2021/03/10 04:47:46;;;;;;;15.82;10.73;;;2.30;79.00;;;;;;5060940;28;20086;-73
2021/03/10 04:50:14;;;;;;;16.90;11.63;;;2.30;78.90;;;;;;5060749;28;20036;-73
2021/03/10 04:52:40;;;;;;;15.65;11.43;;;2.30;79.10;;;;;;5060350;28;20032;-73
2021/03/10 04:55:07;;;;;;;16.42;10.50;;;2.20;79.80;;;;;;5060324;28;20021;-73
2021/03/10 04:57:32;;;;;;;20.15;11.00;;;2.10;79.80;;;;;;5060333;28;20108;-73
2021/03/10 04:59:58;;;;;;;17.27;12.70;;;2.10;79.10;;;;;;5060582;28;20049;-73
2021/03/10 05:02:24;;;;;;;16.67;12.48;;;2.00;79.30;;;;;;5060472;28;20437;-73
2021/03/10 05:04:50;;;;;;;18.80;11.43;;;1.90;79.70;;;;;;5060119;28;20032;-73
2021/03/10 05:07:16;;;;;;;20.73;12.70;;;1.80;79.70;;;;;;5060200;28;20028;-73
2021/03/10 05:09:41;;;;;;;15.63;11.75;;;1.80;79.50;;;;;;5060127;28;20490;-73
2021/03/10 05:12:07;;;;;;;16.55;12.20;;;1.80;79.10;;;;;;5060006;28;20064;-73
2021/03/10 05:14:34;;;;;;;17.02;11.85;;;1.80;78.90;;;;;;5060265;28;20386;-73
2021/03/10 05:17:01;;;;;;;17.10;12.70;;;1.70;79.00;;;;;;5060243;28;20357;-73
2021/03/10 05:19:26;;;;;;;16.15;12.30;;;1.60;79.20;;;;;;5058883;28;20021;-73
2021/03/10 05:21:53;;;;;;;19.40;14.00;;;1.60;79.50;;;;;;5059751;28;20098;-73
2021/03/10 05:24:19;;;;;;;22.10;14.70;;;1.50;79.60;;;;;;5059923;28;20108;-73
2021/03/10 05:26:45;;;;;;;36.85;21.52;;;1.50;79.80;;;;;;5059776;28;20485;-73
2021/03/10 05:29:11;;;;;;;20.50;13.98;;;1.50;80.10;;;;;;5059862;28;20052;-73
2021/03/10 05:31:36;;;;;;;19.02;13.00;;;1.50;79.90;;;;;;5059668;28;20043;-73
2021/03/10 05:34:02;;;;;;;18.05;12.55;;;1.40;80.30;;;;;;5059616;28;20021;-73
2021/03/10 05:36:28;;;;;;;19.15;12.75;;;1.40;80.90;;;;;;5059876;28;20036;-73
2021/03/10 05:38:54;;;;;;;21.83;13.27;;;1.40;81.10;;;;;;5058524;28;20025;-73
2021/03/10 05:41:19;;;;;;;19.08;14.18;;;1.30;81.30;;;;;;5059502;28;20036;-73
2021/03/10 05:43:48;;;;;;;18.30;12.85;;;1.30;81.90;;;;;;5059407;28;20029;-73
2021/03/10 05:46:14;;;;;;;19.25;13.13;;;1.40;81.80;;;;;;5059970;28;20037;-73
2021/03/10 05:48:40;;;;;;;16.67;13.00;;;1.40;81.60;;;;;;5058344;28;20064;-73
2021/03/10 05:51:07;;;;;;;18.50;12.98;;;1.40;82.30;;;;;;5059293;28;20056;-73
2021/03/10 05:53:43;;;;;;;22.58;12.65;;;1.60;83.40;;;;;;5058746;28;20036;-73
2021/03/10 05:56:09;;;;;;;17.70;12.75;;;1.80;82.20;;;;;;5057996;28;20117;-73
2021/03/10 05:58:35;;;;;;;17.60;12.77;;;1.90;79.00;;;;;;5058156;28;20108;-73
2021/03/10 06:01:00;;;;;;;16.38;12.23;;;2.10;77.20;;;;;;5059135;28;20373;-73
2021/03/10 06:03:26;;;;;;;16.05;11.63;;;2.30;78.20;;;;;;5059049;28;20055;-73
2021/03/10 06:06:02;;;;;;;19.13;12.82;;;2.40;77.70;;;;;;5059684;28;20013;-73
2021/03/10 06:08:34;;;;;;;23.00;13.98;;;2.60;76.20;;;;;;5059109;28;20091;-73
2021/03/10 06:11:00;;;;;;;18.02;12.00;;;2.70;76.30;;;;;;5058980;28;20024;-73
2021/03/10 06:13:33;;;;;;;16.70;11.45;;;2.70;75.10;;;;;;5058860;28;20078;-73
2021/03/10 06:16:00;;;;;;;19.40;12.57;;;2.70;74.30;;;;;;5059350;28;20413;-73
2021/03/10 06:18:29;;;;;;;18.75;12.77;;;2.80;75.50;;;;;;5057738;28;20040;-73
2021/03/10 06:21:17;;;;;;;20.80;11.85;;;2.90;74.80;;;;;;5058716;28;20118;-73
2021/03/10 06:23:50;;;;;;;19.83;11.60;;;3.00;74.30;;;;;;5058717;28;20029;-73
2021/03/10 06:26:20;;;;;;;16.40;11.75;;;3.10;74.30;;;;;;5058843;28;20017;-73
2021/03/10 06:28:47;;;;;;;17.02;11.73;;;3.20;73.30;;;;;;5058734;28;20028;-73
2021/03/10 06:31:34;;;;;;;18.05;11.40;;;3.30;73.30;;;;;;5058478;28;20021;-73
2021/03/10 06:34:08;;;;;;;16.52;11.80;;;3.40;72.50;;;;;;5058529;28;20021;-73
2021/03/10 06:36:39;;;;;;;17.02;11.30;;;3.50;71.30;;;;;;5059104;28;20032;-73
2021/03/10 06:39:07;;;;;;;14.38;11.27;;;3.50;69.90;;;;;;5058517;28;20035;-73
2021/03/10 06:41:38;;;;;;;15.68;11.07;;;3.60;69.60;;;;;;5058520;28;20086;-73
2021/03/10 06:44:24;;;;;;;17.08;12.15;;;3.70;69.80;;;;;;5058296;28;20032;-73
2021/03/10 06:46:58;;;;;;;19.75;12.38;;;3.80;69.60;;;;;;5058621;28;20098;-73
2021/03/10 06:49:25;;;;;;;13.80;10.70;;;3.90;71.40;;;;;;5058469;28;20029;-73
2021/03/10 06:51:53;;;;;;;16.08;11.27;;;4.00;72.10;;;;;;5058137;28;20061;-73
2021/03/10 06:54:19;;;;;;;14.13;11.13;;;4.20;70.20;;;;;;5058101;28;20071;-73
2021/03/10 06:56:45;;;;;;;14.05;10.63;;;4.20;71.20;;;;;;5058184;28;20033;-73
2021/03/10 06:59:11;;;;;;;16.23;10.95;;;4.30;69.50;;;;;;5058056;28;20313;-73
2021/03/10 07:01:38;;;;;;;14.63;9.90;;;4.40;70.30;;;;;;5058143;28;20028;-73
2021/03/10 07:04:04;;;;;;;14.35;11.15;;;4.40;70.30;;;;;;5057891;28;20074;-73
2021/03/10 07:06:30;;;;;;;14.35;10.93;;;4.50;69.70;;;;;;5058113;28;20035;-73
2021/03/10 07:08:57;;;;;;;12.75;9.55;;;4.60;69.90;;;;;;5057823;28;20033;-73
2021/03/10 07:11:24;;;;;;;17.00;10.55;;;4.60;69.50;;;;;;5057729;28;20052;-73
2021/03/10 07:13:50;;;;;;;14.05;9.82;;;4.60;69.10;;;;;;5057737;28;20032;-73
2021/03/10 07:16:16;;;;;;;15.77;9.50;;;4.60;69.80;;;;;;5058246;28;20025;-73
2021/03/10 07:18:43;;;;;;;12.88;10.25;;;4.70;69.70;;;;;;5057700;28;20090;-73
2021/03/10 07:21:11;;;;;;;15.50;10.98;;;4.70;69.80;;;;;;5057536;28;20052;-73
2021/03/10 07:23:43;;;;;;;14.75;11.10;;;4.70;69.10;;;;;;5057500;28;20060;-73
2021/03/10 07:26:12;;;;;;;14.95;10.93;;;4.80;69.20;;;;;;5057602;28;20351;-73
2021/03/10 07:28:38;;;;;;;14.70;10.55;;;4.90;69.80;;;;;;5056406;28;20021;-73
2021/03/10 07:31:04;;;;;;;13.90;10.65;;;5.10;67.90;;;;;;5057408;28;20045;-73
2021/03/10 07:33:30;;;;;;;18.73;11.80;;;5.30;65.70;;;;;;5057431;28;20025;-73
2021/03/10 07:35:57;;;;;;;19.38;11.23;;;5.50;64.70;;;;;;5056340;28;20029;-73
2021/03/10 07:38:44;;;;;;;13.90;10.18;;;5.50;65.10;;;;;;5057294;28;20017;-73
2021/03/10 07:41:14;;;;;;;17.70;10.68;;;5.40;64.30;;;;;;5057026;28;20437;-73
2021/03/10 07:43:49;;;;;;;14.73;11.27;;;5.50;61.80;;;;;;5057187;28;20406;-73
2021/03/10 07:46:23;;;;;;;15.88;11.48;;;5.50;62.70;;;;;;5057713;28;20018;-73
2021/03/10 07:48:50;;;;;;;16.67;10.50;;;5.40;61.90;;;;;;5057402;28;20322;-73
2021/03/10 07:51:36;;;;;;;13.23;10.07;;;5.40;60.20;;;;;;5057009;28;20021;-73
2021/03/10 07:54:14;;;;;;;17.13;9.90;;;5.50;61.10;;;;;;5057050;28;20028;-73
2021/03/10 07:56:40;;;;;;;13.60;10.63;;;5.50;63.60;;;;;;5057313;28;20012;-73
2021/03/10 07:59:13;;;;;;;14.40;10.90;;;5.60;64.80;;;;;;5056961;28;20429;-73
2021/03/10 08:01:39;;;;;;;16.70;10.25;;;5.60;62.60;;;;;;5056920;28;20413;-73
2021/03/10 08:04:18;;;;;;;16.85;10.23;;;5.70;62.00;;;;;;5056805;28;20028;-73
2021/03/10 08:06:54;;;;;;;14.32;10.90;;;5.80;63.70;;;;;;5057169;28;20013;-73
2021/03/10 08:09:22;;;;;;;17.15;10.77;;;5.90;64.40;;;;;;5056809;28;20166;-73
2021/03/10 08:12:01;;;;;;;14.38;10.70;;;6.00;62.70;;;;;;5056720;28;20022;-73
2021/03/10 08:14:39;;;;;;;14.20;10.40;;;6.00;61.70;;;;;;5055644;28;20028;-73
2021/03/10 08:17:06;;;;;;;18.05;10.88;;;6.10;64.50;;;;;;5055169;28;20082;-73
2021/03/10 08:19:32;;;;;;;16.17;10.85;;;6.30;61.60;;;;;;5056851;28;20098;-73
2021/03/10 08:21:58;;;;;;;13.25;10.20;;;6.60;60.40;;;;;;5056476;28;20461;-73
2021/03/10 08:24:26;;;;;;;14.57;10.52;;;7.00;60.20;;;;;;5056586;28;20033;-73
2021/03/10 08:26:57;;;;;;;13.57;10.32;;;7.60;58.20;;;;;;5056642;28;20035;-73
2021/03/10 08:29:24;;;;;;;14.05;10.18;;;8.50;56.90;;;;;;5056573;28;20035;-73
2021/03/10 08:31:55;;;;;;;11.40;9.15;;;9.20;53.40;;;;;;5056739;28;20065;-73
2021/03/10 08:34:38;;;;;;;13.85;9.93;;;9.80;54.80;;;;;;5056676;28;20043;-73
2021/03/10 08:37:08;;;;;;;12.35;10.18;;;10.30;51.50;;;;;;5057075;28;20403;-73
2021/03/10 08:39:40;;;;;;;12.75;9.57;;;10.90;51.10;;;;;;5056538;28;20025;-73
2021/03/10 08:42:06;;;;;;;13.35;10.30;;;11.60;49.20;;;;;;5056530;28;20328;-74
2021/03/10 08:44:42;;;;;;;13.85;9.98;;;12.20;49.90;;;;;;5056504;28;20317;-73
2021/03/10 08:47:20;;;;;;;11.90;9.50;;;12.60;48.70;;;;;;5056542;28;20025;-73
2021/03/10 08:50:06;;;;;;;13.50;9.65;;;12.70;46.80;;;;;;5056491;28;20029;-74
2021/03/10 08:52:32;;;;;;;13.57;9.40;;;13.00;46.40;;;;;;5056236;28;20396;-74
2021/03/10 08:55:03;;;;;;;10.60;9.32;;;13.40;47.10;;;;;;5056252;28;20061;-74
2021/03/10 08:57:33;;;;;;;13.40;10.10;;;13.90;46.10;;;;;;5056572;28;20482;-74
2021/03/10 09:00:01;;;;;;;11.40;9.68;;;13.80;45.00;;;;;;5056600;28;20346;-74
2021/03/10 09:02:31;;;;;;;13.90;10.20;;;13.60;45.30;;;;;;5056247;28;20459;-74
2021/03/10 09:04:58;;;;;;;13.85;10.02;;;13.80;45.30;;;;;;5056192;28;20382;-74
2021/03/10 09:07:24;;;;;;;12.20;9.75;;;14.00;45.50;;;;;;5056537;28;20032;-74
2021/03/10 09:10:11;;;;;;;10.82;9.40;;;14.20;45.10;;;;;;5056230;28;20025;-74
2021/03/10 09:12:41;;;;;;;12.45;10.13;;;14.50;44.10;;;;;;5056267;28;20036;-74
2021/03/10 09:15:12;;;;;;;10.18;9.10;;;14.50;43.80;;;;;;5056115;28;20328;-74
2021/03/10 09:17:38;;;;;;;12.25;9.05;;;14.80;45.00;;;;;;5056202;28;20317;-74
2021/03/10 09:20:05;;;;;;;10.93;9.60;;;14.90;44.10;;;;;;5056026;28;20062;-74
2021/03/10 09:22:31;;;;;;;11.57;9.80;;;15.00;43.20;;;;;;5056073;28;20138;-74
2021/03/10 09:24:58;;;;;;;10.75;9.30;;;15.10;43.30;;;;;;5055941;28;20077;-73
2021/03/10 09:27:31;;;;;;;10.73;9.20;;;14.80;43.40;;;;;;5056104;28;20052;-74
2021/03/10 09:30:06;;;;;;;11.45;9.63;;;14.60;43.70;;;;;;5057680;28;20147;-74
2021/03/10 09:32:42;;;;;;;12.82;8.30;;;14.50;44.10;;;;;;5059945;28;20021;-74
2021/03/10 09:35:19;;;;;;;11.27;9.48;;;14.80;44.50;;;;;;5059898;28;20033;-73
2021/03/10 09:37:46;;;;;;;13.70;10.15;;;15.10;44.00;;;;;;5059733;28;20025;-73
2021/03/10 09:40:13;;;;;;;10.82;9.70;;;15.00;42.40;;;;;;5059584;28;20064;-73
2021/03/10 09:42:38;;;;;;;15.63;9.70;;;15.10;43.50;;;;;;5059616;28;20028;-73
2021/03/10 09:45:05;;;;;;;10.65;9.52;;;14.90;44.30;;;;;;5059634;28;20037;-73
2021/03/10 09:47:31;;;;;;;13.90;10.60;;;15.00;44.40;;;;;;5059516;28;20100;-73
2021/03/10 09:49:58;;;;;;;14.20;10.77;;;15.20;41.80;;;;;;5059362;28;20171;-73
2021/03/10 09:52:51;;;;;;;13.57;11.07;;;15.30;42.90;;;;;;5059487;28;20432;-73
2021/03/10 09:55:22;;;;;;;15.50;9.70;;;15.30;41.80;;;;;;5059057;28;20044;-73
2021/03/10 09:57:59;;;;;;;12.18;10.45;;;15.40;40.70;;;;;;5059406;28;20044;-73
2021/03/10 10:00:24;;;;;;;14.32;10.95;;;15.60;40.80;;;;;;5059796;28;20029;-72
2021/03/10 10:02:50;;;;;;;12.73;10.48;;;15.40;43.30;;;;;;5058974;28;20025;-74
2021/03/10 10:05:26;;;;;;;15.02;11.60;;;15.50;41.80;;;;;;5059393;28;20036;-72
2021/03/10 10:07:53;;;;;;;12.73;10.63;;;15.50;41.10;;;;;;5059347;28;20031;-73
2021/03/10 10:10:19;;;;;;;12.27;10.73;;;15.70;42.60;;;;;;5057947;28;20053;-72
2021/03/10 10:12:50;;;;;;;12.57;10.50;;;15.90;42.50;;;;;;5051188;28;20437;-74
2021/03/10 10:15:18;;;;;;;18.25;11.18;;;16.00;41.90;;;;;;5038001;28;20033;-72
2021/03/10 10:17:48;;;;;;;13.60;11.18;;;16.20;41.00;;;;;;5037913;28;20048;-72
2021/03/10 10:20:15;;;;;;;15.40;10.30;;;16.20;42.80;;;;;;5038700;28;20037;-72
2021/03/10 10:22:42;;;;;;;11.23;9.88;;;16.40;42.20;;;;;;5038865;28;20021;-72
2021/03/10 10:25:08;;;;;;;11.90;9.95;;;16.10;43.90;;;;;;5038776;28;20029;-72
2021/03/10 10:27:34;;;;;;;12.05;10.48;;;16.00;42.20;;;;;;5039038;28;20136;-74
2021/03/10 10:29:59;;;;;;;15.85;10.45;;;16.10;42.00;;;;;;5038736;28;20026;-73
2021/03/10 10:32:25;;;;;;;11.00;9.90;;;16.30;42.30;;;;;;5038829;28;20027;-73
2021/03/10 10:34:51;;;;;;;11.77;10.05;;;16.30;41.00;;;;;;5038779;28;20418;-72
2021/03/10 10:37:18;;;;;;;11.25;9.77;;;15.80;42.30;;;;;;5038820;28;20022;-72
2021/03/10 10:39:44;;;;;;;12.00;9.98;;;15.90;43.20;;;;;;5038335;28;20061;-73
2021/03/10 10:42:10;;;;;;;14.65;9.77;;;16.00;42.80;;;;;;5038801;28;20022;-72
2021/03/10 10:44:37;;;;;;;13.40;10.00;;;16.20;43.10;;;;;;5038349;28;20029;-72
2021/03/10 10:47:03;;;;;;;15.00;10.63;;;16.50;42.70;;;;;;5038468;28;20022;-72
2021/03/10 10:49:29;;;;;;;14.00;11.00;;;16.60;42.90;;;;;;5038551;28;20030;-73
2021/03/10 10:51:54;;;;;;;11.80;10.52;;;16.20;42.20;;;;;;5037157;28;20338;-72
2021/03/10 10:54:22;;;;;;;11.20;9.77;;;16.20;43.60;;;;;;5038184;28;20079;-74
2021/03/10 10:56:47;;;;;;;11.27;10.07;;;16.30;42.90;;;;;;5038277;28;20032;-72
2021/03/10 10:59:14;;;;;;;14.45;10.15;;;16.40;42.00;;;;;;5038163;28;20100;-72
2021/03/10 11:01:39;;;;;;;11.85;10.02;;;16.30;43.50;;;;;;5038249;28;20417;-72
2021/03/10 11:04:05;;;;;;;12.00;10.52;;;16.70;43.90;;;;;;5038013;28;20029;-72
2021/03/10 11:06:31;;;;;;;11.68;9.98;;;16.90;40.20;;;;;;5038073;28;20049;-72
2021/03/10 11:08:56;;;;;;;12.07;10.52;;;16.20;42.30;;;;;;5037965;28;20384;-73
2021/03/10 11:11:22;;;;;;;12.73;10.30;;;16.20;44.00;;;;;;5037823;28;20418;-72
2021/03/10 11:13:49;;;;;;;13.23;10.50;;;16.50;43.80;;;;;;5036783;28;20071;-72
2021/03/10 11:16:14;;;;;;;14.20;10.65;;;16.80;41.80;;;;;;5038345;28;20401;-73
2021/03/10 11:18:40;;;;;;;11.02;9.93;;;16.70;43.40;;;;;;5037752;28;20033;-72
2021/03/10 11:21:06;;;;;;;13.40;10.75;;;16.50;44.10;;;;;;5037611;28;20052;-72
2021/03/10 11:23:33;;;;;;;11.95;10.10;;;16.70;42.70;;;;;;5037572;28;20052;-73
2021/03/10 11:26:01;;;;;;;12.68;10.82;;;16.50;42.50;;;;;;5037787;28;20356;-72
2021/03/10 11:28:27;;;;;;;10.70;9.55;;;16.60;41.40;;;;;;5036492;28;20026;-72
2021/03/10 11:30:52;;;;;;;13.27;10.80;;;16.50;42.20;;;;;;5036490;28;20437;-73
2021/03/10 11:33:19;;;;;;;12.23;10.38;;;16.30;43.30;;;;;;5037342;28;20030;-72
2021/03/10 11:35:44;;;;;;;12.93;9.70;;;16.10;42.80;;;;;;5037500;28;20025;-72
2021/03/10 11:38:10;;;;;;;12.27;10.63;;;16.00;44.90;;;;;;5036386;28;20295;-72
2021/03/10 11:40:37;;;;;;;11.68;9.88;;;16.20;44.10;;;;;;5037390;28;20034;-72
2021/03/10 11:43:03;;;;;;;13.32;10.90;;;15.90;44.70;;;;;;5037319;28;20028;-72
2021/03/10 11:45:29;;;;;;;12.02;10.40;;;15.70;43.50;;;;;;5037261;28;20033;-74
2021/03/10 11:47:55;;;;;;;12.65;10.55;;;15.60;43.20;;;;;;5037212;28;20088;-72
2021/03/10 11:50:21;;;;;;;14.15;10.73;;;15.80;44.80;;;;;;5037200;28;20104;-72
2021/03/10 11:52:46;;;;;;;11.30;10.15;;;16.10;43.80;;;;;;5036304;28;20060;-73
2021/03/10 11:55:13;;;;;;;12.77;11.38;;;16.00;43.90;;;;;;5037035;28;20080;-72
2021/03/10 11:57:40;;;;;;;13.75;11.30;;;15.90;42.90;;;;;;5037474;28;20025;-73
2021/03/10 12:00:07;;;;;;;14.00;11.07;;;15.80;44.40;;;;;;5037353;28;20372;-72
2021/03/10 12:02:33;;;;;;;15.75;11.18;;;15.60;43.30;;;;;;5036956;28;20021;-73
2021/03/10 12:04:59;;;;;;;12.52;10.98;;;15.60;42.50;;;;;;5036925;28;20060;-72
2021/03/10 12:07:24;;;;;;;15.75;11.02;;;15.70;43.60;;;;;;5036987;28;20025;-72
2021/03/10 12:09:51;;;;;;;13.48;11.52;;;15.60;43.90;;;;;;5036937;28;20151;-72
2021/03/10 12:12:17;;;;;;;15.40;12.02;;;15.40;43.50;;;;;;5036822;28;20103;-73
2021/03/10 12:14:44;;;;;;;14.25;12.02;;;15.20;45.20;;;;;;5036776;28;20029;-73
2021/03/10 12:17:10;;;;;;;13.77;11.73;;;15.00;44.90;;;;;;5036846;28;20035;-72
2021/03/10 12:19:35;;;;;;;14.23;11.75;;;15.00;45.10;;;;;;5037014;28;20021;-72
2021/03/10 12:22:01;;;;;;;14.35;12.25;;;14.80;45.20;;;;;;5036575;28;20111;-72
2021/03/10 12:24:27;;;;;;;15.10;12.32;;;14.70;46.10;;;;;;5036785;28;20064;-73
2021/03/10 12:26:53;;;;;;;16.63;12.85;;;14.60;44.40;;;;;;5036829;28;20036;-72
2021/03/10 12:29:19;;;;;;;15.10;12.32;;;14.50;46.70;;;;;;5036879;28;20079;-72
2021/03/10 12:31:44;;;;;;;17.67;12.18;;;14.40;46.90;;;;;;5035530;28;20077;-72
2021/03/10 12:34:10;;;;;;;15.70;11.43;;;14.30;44.80;;;;;;5036509;28;20029;-72
2021/03/10 12:36:36;;;;;;;17.90;11.40;;;14.00;44.50;;;;;;5037237;28;20056;-72
2021/03/10 12:39:04;;;;;;;12.57;10.68;;;13.80;46.10;;;;;;5036567;28;20075;-72
2021/03/10 12:41:29;;;;;;;16.42;12.02;;;13.70;46.40;;;;;;5035483;28;20108;-74